»·PEaware :: N66DR KAVX-KSAN

N66DR :: KAVX-KSAN

FLIGHT INFORMATION

Flight Status: Arrived
Operator: Privately registered:
United States
More flights under this callsign
Pilot: Derek R. (15925)
Aircraft: BEECH AIRCRAFT T-6A TEXAN
(TEX2)
More flights by this aircraft type
Origin: KAVX Catalina
United States
Destination: KSAN San Diego Intl-Lindbergh
United States
More flights between these airports :: More routes between these airports
Route: +SXC V208 LAX118R CARDI MZB320R MZB
File this flight plan on PilotEdge
Remarks: TEC CSTN54. REQUEST VECTORS LOC 27 KSAN. CUSTOM WX.
Altitude:
(Current/Filed)
9,000ft
Speed:
(Current/Filed)
250kts
Departed: 19-Nov-17 03:41 PM
Arrived: 19-Nov-17 04:45 PM
Distance/Time
Traveled:
74nm/1:04
Distance/Time
To Go:
Arrived

Flight Plot

Page will automatically refresh every two minutes.


Map Options




Map Legend


Flown Route
Filed Route
Departure Airport
Arrival Airport
Navaid (VOR, NDB)
Fix

Horizontal Profiles

Position Reports

Time Latitude Longitude Heading Altitude Ground
Speed
19-Nov-17 15:28 33.403434 -118.415649 79 1549ft 0kts
19-Nov-17 15:29 33.403434 -118.415649 79 1549ft 0kts
19-Nov-17 15:30 33.403434 -118.415649 79 1549ft 0kts
19-Nov-17 15:31 33.403434 -118.415649 79 1549ft 0kts
19-Nov-17 15:32 33.403434 -118.415649 79 1549ft 0kts
19-Nov-17 15:33 33.403434 -118.415649 79 1549ft 0kts
19-Nov-17 15:34 33.403434 -118.415649 79 1549ft 0kts
19-Nov-17 15:35 33.403434 -118.415649 79 1549ft 0kts
19-Nov-17 15:36 33.403434 -118.415649 79 1549ft 0kts
19-Nov-17 15:37 33.403434 -118.415649 79 1549ft 0kts
19-Nov-17 15:38 33.403434 -118.415649 79 1549ft 0kts
19-Nov-17 15:39 33.404334 -118.415014 359 1546ft 8kts
19-Nov-17 15:40 33.405600 -118.414028 55 1537ft 16kts
19-Nov-17 15:41 33.406887 -118.411867 53 1516ft 12kts
19-Nov-17 15:42 33.406969 -118.411729 55 1515ft 0kts
19-Nov-17 15:43 33.406969 -118.411729 55 1515ft 0kts
19-Nov-17 15:44 33.406969 -118.411729 55 1515ft 0kts
19-Nov-17 15:45 33.407365 -118.411682 251 1514ft 4kts
19-Nov-17 15:46 33.402176 -118.420528 233 1706ft 108kts
19-Nov-17 15:47 33.387928 -118.442142 228 3077ft 152kts
19-Nov-17 15:48 33.362100 -118.446623 176 3836ft 193kts
19-Nov-17 15:49 33.346565 -118.394966 92 4414ft 246kts
19-Nov-17 15:50 33.350161 -118.347481 79 4811ft 255kts
19-Nov-17 15:51 33.354572 -118.308259 99 5131ft 257kts
19-Nov-17 15:52 33.347180 -118.263697 109 5497ft 256kts
19-Nov-17 15:53 33.338545 -118.221893 108 5890ft 253kts
19-Nov-17 15:54 33.330455 -118.187720 110 6307ft 249kts
19-Nov-17 15:55 33.322251 -118.153126 110 6735ft 248kts
19-Nov-17 15:56 33.315095 -118.118304 96 7161ft 252kts
19-Nov-17 15:57 33.315672 -118.083199 91 7584ft 254kts
19-Nov-17 15:58 33.316582 -118.046543 91 8013ft 255kts
19-Nov-17 15:59 33.316387 -118.008207 101 8459ft 254kts
19-Nov-17 16:00 33.311771 -117.970123 101 8890ft 256kts
19-Nov-17 16:01 33.306655 -117.930735 101 8965ft 278kts
19-Nov-17 16:02 33.300148 -117.881918 101 8967ft 297kts
19-Nov-17 16:03 33.293170 -117.830195 101 8966ft 308kts
19-Nov-17 16:04 33.286391 -117.780231 101 8965ft 314kts
19-Nov-17 16:05 33.279245 -117.727719 101 8965ft 317kts
19-Nov-17 16:06 33.272240 -117.676292 101 8965ft 319kts
19-Nov-17 16:07 33.265311 -117.625439 101 8965ft 321kts
19-Nov-17 16:08 33.258453 -117.575082 101 8965ft 321kts
19-Nov-17 16:09 33.245807 -117.527960 130 8956ft 312kts
19-Nov-17 16:10 33.217177 -117.487942 135 8966ft 310kts
19-Nov-17 16:11 33.189639 -117.450241 138 8964ft 309kts
19-Nov-17 16:12 33.161609 -117.415225 138 8966ft 309kts
19-Nov-17 16:13 33.126810 -117.388311 155 8621ft 311kts
19-Nov-17 16:14 33.089725 -117.363719 158 8150ft 316kts
19-Nov-17 16:15 33.050256 -117.349612 174 7672ft 302kts
19-Nov-17 16:16 33.010784 -117.341175 175 7138ft 274kts
19-Nov-17 16:17 32.977540 -117.330079 167 6961ft 251kts
19-Nov-17 16:18 32.948990 -117.317646 163 6953ft 229kts
19-Nov-17 16:19 32.921713 -117.302156 162 6954ft 209kts
19-Nov-17 16:20 32.895425 -117.286767 162 6956ft 193kts
19-Nov-17 16:21 32.869815 -117.271357 162 6959ft 181kts
19-Nov-17 16:22 32.848172 -117.258034 161 6959ft 173kts
19-Nov-17 16:23 32.837521 -117.233262 103 6968ft 190kts
19-Nov-17 16:24 32.833748 -117.198273 101 6658ft 203kts
19-Nov-17 16:25 32.828921 -117.159817 113 6178ft 216kts
19-Nov-17 16:26 32.818471 -117.118872 111 5669ft 228kts
19-Nov-17 16:27 32.808894 -117.081321 111 5216ft 234kts
19-Nov-17 16:28 32.802016 -117.054859 111 4991ft 232kts
19-Nov-17 16:29 32.795737 -117.030514 111 4963ft 222kts
19-Nov-17 16:30 32.789155 -117.004861 111 4966ft 221kts
19-Nov-17 16:31 32.781416 -116.975397 111 4973ft 253kts
19-Nov-17 16:32 32.772704 -116.942956 111 4969ft 272kts
19-Nov-17 16:33 32.760430 -116.897916 111 4967ft 286kts
19-Nov-17 16:34 32.747192 -116.849744 112 4965ft 292kts
19-Nov-17 16:35 32.722393 -116.822622 172 4956ft 267kts
19-Nov-17 16:36 32.691773 -116.824344 190 4964ft 254kts
19-Nov-17 16:37 32.668372 -116.846692 248 4956ft 206kts
19-Nov-17 16:38 32.662673 -116.873574 274 4686ft 167kts
19-Nov-17 16:39 32.666241 -116.902865 274 4346ft 203kts
19-Nov-17 16:40 32.670590 -116.936355 284 4009ft 223kts
19-Nov-17 16:41 32.680672 -116.967095 288 3739ft 228kts
19-Nov-17 16:42 32.692894 -117.007331 286 3128ft 212kts
19-Nov-17 16:43 32.701856 -117.053284 276 2537ft 156kts
19-Nov-17 16:44 32.706477 -117.081021 279 2045ft 177kts
19-Nov-17 16:45 32.713455 -117.113482 292 1760ft 183kts
19-Nov-17 16:46 32.723578 -117.137549 287 1335ft 107kts
19-Nov-17 16:47 32.725985 -117.155424 281 835ft 96kts
19-Nov-17 16:48 32.729947 -117.173754 280 136ft 90kts
19-Nov-17 16:49 32.733217 -117.187525 310 18ft 47kts
19-Nov-17 16:50 32.734469 -117.188103 351 18ft 18kts
19-Nov-17 16:51 32.734875 -117.187990 124 18ft 0kts
19-Nov-17 16:52 32.734875 -117.187990 124 18ft 0kts

Navigation Log

Ident Type
1. KAVX Airport
2. SXC Navaid
3. CARDI Fix
4. MZB Navaid
5. KSAN Airport